Esfahan, Iran
Current Conditions -  °F | °C
As of 11:30 AM on Saturday 29 Nov 2014 (Local Time) from OIFM Reporting Station
Few Clouds Few Clouds  
Wind Chill: 44°   Ceiling: Unl
Heat Index: 48°   Visibility: 5mi
Dew Point: 36°   Wind: 9mph
Humidity: 62%   Direction: 300°WNW
Pressure: 30.12"   Gusts: NA
Location:  32.68°N, 51.68°E
Report Text: OIFM 290730Z 30008KT 8000 FEW040TCU 09/02 Q1020 A3014
Loading
Personal Weather Stations






























Interactive Weather Map New forecast layout! Learn more

10-Day Weather Forecast

Advertisements
Track Severe Weather on mobile